sensor_id;sensor_type;location;lat;lon;timestamp;P1;durP1;ratioP1;P2;durP2;ratioP2
17488;SDS011;8861;52.644;4.734;2023-04-29T00:01:19;38.57;;;22.60;;
17488;SDS011;8861;52.644;4.734;2023-04-29T00:03:46;35.60;;;21.23;;
17488;SDS011;8861;52.644;4.734;2023-04-29T00:06:13;34.83;;;20.90;;
17488;SDS011;8861;52.644;4.734;2023-04-29T00:08:40;35.53;;;20.60;;
17488;SDS011;8861;52.644;4.734;2023-04-29T00:11:08;32.07;;;19.77;;
17488;SDS011;8861;52.644;4.734;2023-04-29T00:13:35;29.67;;;19.07;;
17488;SDS011;8861;52.644;4.734;2023-04-29T00:16:05;30.23;;;19.47;;
17488;SDS011;8861;52.644;4.734;2023-04-29T00:18:34;31.47;;;19.80;;
17488;SDS011;8861;52.644;4.734;2023-04-29T00:21:01;29.00;;;18.00;;
17488;SDS011;8861;52.644;4.734;2023-04-29T00:23:30;40.00;;;21.57;;
17488;SDS011;8861;52.644;4.734;2023-04-29T00:25:57;32.33;;;18.90;;
17488;SDS011;8861;52.644;4.734;2023-04-29T00:28:24;29.67;;;18.80;;
17488;SDS011;8861;52.644;4.734;2023-04-29T00:30:51;29.00;;;18.17;;
17488;SDS011;8861;52.644;4.734;2023-04-29T00:33:19;31.07;;;18.33;;
17488;SDS011;8861;52.644;4.734;2023-04-29T00:35:46;33.40;;;19.47;;
17488;SDS011;8861;52.644;4.734;2023-04-29T00:38:13;30.30;;;19.00;;
17488;SDS011;8861;52.644;4.734;2023-04-29T00:40:40;37.17;;;21.00;;
17488;SDS011;8861;52.644;4.734;2023-04-29T00:43:08;34.20;;;19.93;;
17488;SDS011;8861;52.644;4.734;2023-04-29T00:45:35;35.50;;;22.23;;
17488;SDS011;8861;52.644;4.734;2023-04-29T00:48:02;32.10;;;19.77;;
17488;SDS011;8861;52.644;4.734;2023-04-29T00:50:31;33.80;;;20.37;;
17488;SDS011;8861;52.644;4.734;2023-04-29T00:52:58;34.57;;;20.40;;
17488;SDS011;8861;52.644;4.734;2023-04-29T00:55:26;36.63;;;21.13;;
17488;SDS011;8861;52.644;4.734;2023-04-29T00:57:53;37.47;;;21.53;;
17488;SDS011;8861;52.644;4.734;2023-04-29T01:00:21;35.40;;;20.80;;
17488;SDS011;8861;52.644;4.734;2023-04-29T01:02:48;34.57;;;20.13;;
17488;SDS011;8861;52.644;4.734;2023-04-29T01:05:16;32.13;;;18.67;;
17488;SDS011;8861;52.644;4.734;2023-04-29T01:07:47;29.90;;;17.60;;
17488;SDS011;8861;52.644;4.734;2023-04-29T01:10:26;29.57;;;18.13;;
17488;SDS011;8861;52.644;4.734;2023-04-29T01:12:57;33.13;;;19.37;;
17488;SDS011;8861;52.644;4.734;2023-04-29T01:15:33;32.70;;;19.43;;
17488;SDS011;8861;52.644;4.734;2023-04-29T01:18:05;41.30;;;20.30;;
17488;SDS011;8861;52.644;4.734;2023-04-29T01:20:36;34.50;;;19.73;;
17488;SDS011;8861;52.644;4.734;2023-04-29T01:23:05;33.47;;;20.00;;
17488;SDS011;8861;52.644;4.734;2023-04-29T01:25:33;29.33;;;18.73;;
17488;SDS011;8861;52.644;4.734;2023-04-29T01:28:04;26.83;;;17.60;;
17488;SDS011;8861;52.644;4.734;2023-04-29T01:30:41;30.07;;;18.57;;
17488;SDS011;8861;52.644;4.734;2023-04-29T01:33:16;29.50;;;16.53;;
17488;SDS011;8861;52.644;4.734;2023-04-29T01:35:54;34.70;;;18.93;;
17488;SDS011;8861;52.644;4.734;2023-04-29T01:38:33;32.40;;;18.20;;
17488;SDS011;8861;52.644;4.734;2023-04-29T01:41:11;34.20;;;19.23;;
17488;SDS011;8861;52.644;4.734;2023-04-29T01:43:41;29.10;;;17.60;;
17488;SDS011;8861;52.644;4.734;2023-04-29T01:46:11;27.27;;;17.43;;
17488;SDS011;8861;52.644;4.734;2023-04-29T01:48:42;29.20;;;18.57;;
17488;SDS011;8861;52.644;4.734;2023-04-29T01:51:10;30.90;;;18.20;;
17488;SDS011;8861;52.644;4.734;2023-04-29T01:53:37;25.83;;;16.80;;
17488;SDS011;8861;52.644;4.734;2023-04-29T01:56:05;26.43;;;16.20;;
17488;SDS011;8861;52.644;4.734;2023-04-29T01:58:34;24.40;;;14.63;;
17488;SDS011;8861;52.644;4.734;2023-04-29T02:01:00;31.03;;;17.90;;
17488;SDS011;8861;52.644;4.734;2023-04-29T02:03:27;29.27;;;16.77;;
17488;SDS011;8861;52.644;4.734;2023-04-29T02:05:54;29.20;;;16.13;;
17488;SDS011;8861;52.644;4.734;2023-04-29T02:08:21;27.53;;;16.37;;
17488;SDS011;8861;52.644;4.734;2023-04-29T02:10:52;29.60;;;18.17;;
17488;SDS011;8861;52.644;4.734;2023-04-29T02:13:19;29.53;;;17.63;;
17488;SDS011;8861;52.644;4.734;2023-04-29T02:15:47;30.40;;;17.23;;
17488;SDS011;8861;52.644;4.734;2023-04-29T02:18:14;26.43;;;16.20;;
17488;SDS011;8861;52.644;4.734;2023-04-29T02:20:41;35.87;;;19.57;;
17488;SDS011;8861;52.644;4.734;2023-04-29T02:23:08;34.03;;;17.77;;
17488;SDS011;8861;52.644;4.734;2023-04-29T02:25:35;35.03;;;19.37;;
17488;SDS011;8861;52.644;4.734;2023-04-29T02:28:02;34.10;;;19.43;;
17488;SDS011;8861;52.644;4.734;2023-04-29T02:30:29;30.33;;;18.23;;
17488;SDS011;8861;52.644;4.734;2023-04-29T02:32:58;35.27;;;18.70;;
17488;SDS011;8861;52.644;4.734;2023-04-29T02:35:24;28.53;;;17.70;;
17488;SDS011;8861;52.644;4.734;2023-04-29T02:37:51;34.63;;;17.67;;
17488;SDS011;8861;52.644;4.734;2023-04-29T02:40:18;31.20;;;17.60;;
17488;SDS011;8861;52.644;4.734;2023-04-29T02:42:45;31.93;;;17.67;;
17488;SDS011;8861;52.644;4.734;2023-04-29T02:45:12;30.83;;;16.53;;
17488;SDS011;8861;52.644;4.734;2023-04-29T02:47:39;30.07;;;17.20;;
17488;SDS011;8861;52.644;4.734;2023-04-29T02:50:08;29.20;;;16.60;;
17488;SDS011;8861;52.644;4.734;2023-04-29T02:52:35;30.50;;;16.83;;
17488;SDS011;8861;52.644;4.734;2023-04-29T02:55:02;29.57;;;17.70;;
17488;SDS011;8861;52.644;4.734;2023-04-29T02:57:30;35.43;;;19.07;;
17488;SDS011;8861;52.644;4.734;2023-04-29T02:59:57;31.83;;;18.00;;
17488;SDS011;8861;52.644;4.734;2023-04-29T03:02:24;33.53;;;17.77;;
17488;SDS011;8861;52.644;4.734;2023-04-29T03:04:51;32.47;;;17.63;;
17488;SDS011;8861;52.644;4.734;2023-04-29T03:07:20;33.10;;;19.40;;
17488;SDS011;8861;52.644;4.734;2023-04-29T03:09:47;32.43;;;17.77;;
17488;SDS011;8861;52.644;4.734;2023-04-29T03:12:14;34.97;;;19.17;;
17488;SDS011;8861;52.644;4.734;2023-04-29T03:14:41;33.80;;;18.60;;
17488;SDS011;8861;52.644;4.734;2023-04-29T03:17:08;31.23;;;18.43;;
17488;SDS011;8861;52.644;4.734;2023-04-29T03:19:36;32.03;;;18.83;;
17488;SDS011;8861;52.644;4.734;2023-04-29T03:22:03;36.67;;;20.13;;
17488;SDS011;8861;52.644;4.734;2023-04-29T03:24:31;35.43;;;20.20;;
17488;SDS011;8861;52.644;4.734;2023-04-29T03:26:58;35.90;;;19.70;;
17488;SDS011;8861;52.644;4.734;2023-04-29T03:29:25;36.30;;;20.27;;
17488;SDS011;8861;52.644;4.734;2023-04-29T03:31:52;35.83;;;19.37;;
17488;SDS011;8861;52.644;4.734;2023-04-29T03:34:20;32.57;;;19.97;;
17488;SDS011;8861;52.644;4.734;2023-04-29T03:36:48;35.30;;;20.63;;
17488;SDS011;8861;52.644;4.734;2023-04-29T03:39:15;34.73;;;19.70;;
17488;SDS011;8861;52.644;4.734;2023-04-29T03:41:43;34.53;;;19.53;;
17488;SDS011;8861;52.644;4.734;2023-04-29T03:44:12;32.30;;;19.77;;
17488;SDS011;8861;52.644;4.734;2023-04-29T03:46:39;34.43;;;19.83;;
17488;SDS011;8861;52.644;4.734;2023-04-29T03:49:06;34.77;;;19.40;;
17488;SDS011;8861;52.644;4.734;2023-04-29T03:51:33;33.80;;;19.20;;
17488;SDS011;8861;52.644;4.734;2023-04-29T03:54:00;30.33;;;18.27;;
17488;SDS011;8861;52.644;4.734;2023-04-29T03:56:27;34.00;;;19.30;;
17488;SDS011;8861;52.644;4.734;2023-04-29T03:58:55;33.30;;;19.73;;
17488;SDS011;8861;52.644;4.734;2023-04-29T04:01:22;33.53;;;18.67;;
17488;SDS011;8861;52.644;4.734;2023-04-29T04:03:49;30.00;;;17.80;;
17488;SDS011;8861;52.644;4.734;2023-04-29T04:06:16;30.10;;;17.97;;
17488;SDS011;8861;52.644;4.734;2023-04-29T04:08:43;30.80;;;16.77;;
17488;SDS011;8861;52.644;4.734;2023-04-29T04:11:10;30.37;;;17.30;;
17488;SDS011;8861;52.644;4.734;2023-04-29T04:13:39;32.93;;;18.77;;
17488;SDS011;8861;52.644;4.734;2023-04-29T04:16:07;32.90;;;18.70;;
17488;SDS011;8861;52.644;4.734;2023-04-29T04:18:35;33.87;;;19.00;;
17488;SDS011;8861;52.644;4.734;2023-04-29T04:21:05;35.73;;;19.20;;
17488;SDS011;8861;52.644;4.734;2023-04-29T04:23:32;34.90;;;19.03;;
17488;SDS011;8861;52.644;4.734;2023-04-29T04:25:59;33.80;;;18.27;;
17488;SDS011;8861;52.644;4.734;2023-04-29T04:28:26;34.80;;;19.53;;
17488;SDS011;8861;52.644;4.734;2023-04-29T04:30:53;40.03;;;19.33;;
17488;SDS011;8861;52.644;4.734;2023-04-29T04:33:21;38.37;;;18.07;;
17488;SDS011;8861;52.644;4.734;2023-04-29T04:35:48;31.43;;;17.33;;
17488;SDS011;8861;52.644;4.734;2023-04-29T04:38:15;28.47;;;15.67;;
17488;SDS011;8861;52.644;4.734;2023-04-29T04:40:42;31.93;;;16.00;;
17488;SDS011;8861;52.644;4.734;2023-04-29T04:43:10;31.27;;;15.93;;
17488;SDS011;8861;52.644;4.734;2023-04-29T04:45:37;29.30;;;15.17;;
17488;SDS011;8861;52.644;4.734;2023-04-29T04:48:04;28.63;;;15.43;;
17488;SDS011;8861;52.644;4.734;2023-04-29T04:50:32;30.30;;;15.13;;
17488;SDS011;8861;52.644;4.734;2023-04-29T04:52:59;32.40;;;17.07;;
17488;SDS011;8861;52.644;4.734;2023-04-29T04:55:26;29.57;;;15.53;;
17488;SDS011;8861;52.644;4.734;2023-04-29T04:57:53;30.30;;;15.47;;
17488;SDS011;8861;52.644;4.734;2023-04-29T05:00:20;29.67;;;15.43;;
17488;SDS011;8861;52.644;4.734;2023-04-29T05:02:47;32.63;;;15.67;;
17488;SDS011;8861;52.644;4.734;2023-04-29T05:05:14;29.23;;;15.37;;
17488;SDS011;8861;52.644;4.734;2023-04-29T05:07:42;30.77;;;16.50;;
17488;SDS011;8861;52.644;4.734;2023-04-29T05:10:09;31.30;;;15.67;;
17488;SDS011;8861;52.644;4.734;2023-04-29T05:12:36;27.40;;;14.80;;
17488;SDS011;8861;52.644;4.734;2023-04-29T05:15:03;27.17;;;14.10;;
17488;SDS011;8861;52.644;4.734;2023-04-29T05:17:31;28.30;;;14.70;;
17488;SDS011;8861;52.644;4.734;2023-04-29T05:19:58;24.77;;;14.30;;
17488;SDS011;8861;52.644;4.734;2023-04-29T05:22:25;27.03;;;14.40;;
17488;SDS011;8861;52.644;4.734;2023-04-29T05:24:54;29.03;;;13.77;;
17488;SDS011;8861;52.644;4.734;2023-04-29T05:27:26;28.13;;;14.67;;
17488;SDS011;8861;52.644;4.734;2023-04-29T05:29:53;27.23;;;14.50;;
17488;SDS011;8861;52.644;4.734;2023-04-29T05:32:21;28.37;;;14.83;;
17488;SDS011;8861;52.644;4.734;2023-04-29T05:34:47;29.90;;;14.53;;
17488;SDS011;8861;52.644;4.734;2023-04-29T05:37:15;26.20;;;14.50;;
17488;SDS011;8861;52.644;4.734;2023-04-29T05:39:42;26.20;;;13.37;;
17488;SDS011;8861;52.644;4.734;2023-04-29T05:42:10;19.13;;;11.87;;
17488;SDS011;8861;52.644;4.734;2023-04-29T05:44:37;25.10;;;12.57;;
17488;SDS011;8861;52.644;4.734;2023-04-29T05:47:04;30.70;;;14.77;;
17488;SDS011;8861;52.644;4.734;2023-04-29T05:49:31;22.87;;;12.63;;
17488;SDS011;8861;52.644;4.734;2023-04-29T05:51:58;20.60;;;12.63;;
17488;SDS011;8861;52.644;4.734;2023-04-29T05:54:30;28.40;;;14.00;;
17488;SDS011;8861;52.644;4.734;2023-04-29T05:56:57;23.10;;;11.93;;
17488;SDS011;8861;52.644;4.734;2023-04-29T05:59:27;28.47;;;13.83;;
17488;SDS011;8861;52.644;4.734;2023-04-29T06:01:54;22.63;;;11.90;;
17488;SDS011;8861;52.644;4.734;2023-04-29T06:04:21;21.47;;;11.97;;
17488;SDS011;8861;52.644;4.734;2023-04-29T06:06:48;20.30;;;11.17;;
17488;SDS011;8861;52.644;4.734;2023-04-29T06:09:16;24.77;;;11.73;;
17488;SDS011;8861;52.644;4.734;2023-04-29T06:11:44;24.93;;;12.10;;
17488;SDS011;8861;52.644;4.734;2023-04-29T06:14:11;23.33;;;11.87;;
17488;SDS011;8861;52.644;4.734;2023-04-29T06:16:40;21.07;;;11.57;;
17488;SDS011;8861;52.644;4.734;2023-04-29T06:19:07;22.47;;;11.70;;
17488;SDS011;8861;52.644;4.734;2023-04-29T06:21:34;19.77;;;10.63;;
17488;SDS011;8861;52.644;4.734;2023-04-29T06:24:01;22.60;;;11.70;;
17488;SDS011;8861;52.644;4.734;2023-04-29T06:26:27;24.63;;;12.10;;
17488;SDS011;8861;52.644;4.734;2023-04-29T06:28:54;22.97;;;11.33;;
17488;SDS011;8861;52.644;4.734;2023-04-29T06:31:21;23.33;;;11.13;;
17488;SDS011;8861;52.644;4.734;2023-04-29T06:33:50;22.07;;;12.00;;
17488;SDS011;8861;52.644;4.734;2023-04-29T06:36:17;21.43;;;11.87;;
17488;SDS011;8861;52.644;4.734;2023-04-29T06:38:44;17.87;;;11.10;;
17488;SDS011;8861;52.644;4.734;2023-04-29T06:41:10;23.20;;;12.27;;
17488;SDS011;8861;52.644;4.734;2023-04-29T06:43:38;19.20;;;11.10;;
17488;SDS011;8861;52.644;4.734;2023-04-29T06:46:05;19.40;;;11.00;;
17488;SDS011;8861;52.644;4.734;2023-04-29T06:48:32;20.13;;;10.90;;
17488;SDS011;8861;52.644;4.734;2023-04-29T06:51:00;19.80;;;10.07;;
17488;SDS011;8861;52.644;4.734;2023-04-29T06:53:28;19.43;;;11.23;;
17488;SDS011;8861;52.644;4.734;2023-04-29T06:55:54;15.93;;;9.90;;
17488;SDS011;8861;52.644;4.734;2023-04-29T06:58:21;20.03;;;11.00;;
17488;SDS011;8861;52.644;4.734;2023-04-29T07:00:49;18.33;;;9.33;;
17488;SDS011;8861;52.644;4.734;2023-04-29T07:03:17;18.03;;;10.27;;
17488;SDS011;8861;52.644;4.734;2023-04-29T07:05:44;15.00;;;9.27;;
17488;SDS011;8861;52.644;4.734;2023-04-29T07:08:13;18.93;;;9.47;;
17488;SDS011;8861;52.644;4.734;2023-04-29T07:10:40;16.80;;;9.00;;
17488;SDS011;8861;52.644;4.734;2023-04-29T07:13:07;16.70;;;9.90;;
17488;SDS011;8861;52.644;4.734;2023-04-29T07:15:35;16.60;;;10.23;;
17488;SDS011;8861;52.644;4.734;2023-04-29T07:18:02;20.77;;;10.27;;
17488;SDS011;8861;52.644;4.734;2023-04-29T07:20:30;16.73;;;10.20;;
17488;SDS011;8861;52.644;4.734;2023-04-29T07:22:57;15.73;;;9.27;;
17488;SDS011;8861;52.644;4.734;2023-04-29T07:25:26;19.23;;;9.87;;
17488;SDS011;8861;52.644;4.734;2023-04-29T07:27:54;14.10;;;8.47;;
17488;SDS011;8861;52.644;4.734;2023-04-29T07:30:21;14.37;;;8.83;;
17488;SDS011;8861;52.644;4.734;2023-04-29T07:32:49;14.77;;;9.73;;
17488;SDS011;8861;52.644;4.734;2023-04-29T07:35:16;15.27;;;9.10;;
17488;SDS011;8861;52.644;4.734;2023-04-29T07:37:43;14.67;;;8.43;;
17488;SDS011;8861;52.644;4.734;2023-04-29T07:40:10;15.03;;;9.27;;
17488;SDS011;8861;52.644;4.734;2023-04-29T07:42:38;16.17;;;9.10;;
17488;SDS011;8861;52.644;4.734;2023-04-29T07:45:06;13.27;;;9.00;;
17488;SDS011;8861;52.644;4.734;2023-04-29T07:47:33;13.27;;;8.70;;
17488;SDS011;8861;52.644;4.734;2023-04-29T07:50:00;14.33;;;8.00;;
17488;SDS011;8861;52.644;4.734;2023-04-29T07:52:27;12.93;;;7.90;;
17488;SDS011;8861;52.644;4.734;2023-04-29T07:54:54;17.27;;;8.67;;
17488;SDS011;8861;52.644;4.734;2023-04-29T07:57:21;11.33;;;7.40;;
17488;SDS011;8861;52.644;4.734;2023-04-29T07:59:51;15.90;;;9.43;;
17488;SDS011;8861;52.644;4.734;2023-04-29T08:02:18;14.33;;;8.63;;
17488;SDS011;8861;52.644;4.734;2023-04-29T08:04:45;14.83;;;9.20;;
17488;SDS011;8861;52.644;4.734;2023-04-29T08:07:12;18.00;;;9.37;;
17488;SDS011;8861;52.644;4.734;2023-04-29T08:09:39;16.93;;;10.23;;
17488;SDS011;8861;52.644;4.734;2023-04-29T08:12:07;15.60;;;9.47;;
17488;SDS011;8861;52.644;4.734;2023-04-29T08:14:34;15.07;;;9.43;;
17488;SDS011;8861;52.644;4.734;2023-04-29T08:17:02;16.43;;;8.77;;
17488;SDS011;8861;52.644;4.734;2023-04-29T08:19:29;15.50;;;9.50;;
17488;SDS011;8861;52.644;4.734;2023-04-29T08:21:56;15.30;;;9.93;;
17488;SDS011;8861;52.644;4.734;2023-04-29T08:24:25;13.10;;;9.33;;
17488;SDS011;8861;52.644;4.734;2023-04-29T08:26:53;11.73;;;8.80;;
17488;SDS011;8861;52.644;4.734;2023-04-29T08:29:20;13.67;;;8.60;;
17488;SDS011;8861;52.644;4.734;2023-04-29T08:31:46;12.40;;;8.80;;
17488;SDS011;8861;52.644;4.734;2023-04-29T08:34:15;12.43;;;8.00;;
17488;SDS011;8861;52.644;4.734;2023-04-29T08:36:42;13.30;;;8.10;;
17488;SDS011;8861;52.644;4.734;2023-04-29T08:39:09;15.33;;;9.10;;
17488;SDS011;8861;52.644;4.734;2023-04-29T08:41:36;12.23;;;8.27;;
17488;SDS011;8861;52.644;4.734;2023-04-29T08:44:03;14.90;;;9.30;;
17488;SDS011;8861;52.644;4.734;2023-04-29T08:46:31;14.37;;;8.53;;
17488;SDS011;8861;52.644;4.734;2023-04-29T08:48:58;12.37;;;8.00;;
17488;SDS011;8861;52.644;4.734;2023-04-29T08:51:29;17.00;;;9.37;;
17488;SDS011;8861;52.644;4.734;2023-04-29T08:53:58;11.30;;;7.80;;
17488;SDS011;8861;52.644;4.734;2023-04-29T08:56:25;13.13;;;8.43;;
17488;SDS011;8861;52.644;4.734;2023-04-29T08:58:53;13.93;;;9.00;;
17488;SDS011;8861;52.644;4.734;2023-04-29T09:01:23;13.57;;;8.40;;
17488;SDS011;8861;52.644;4.734;2023-04-29T09:03:53;12.43;;;8.30;;
17488;SDS011;8861;52.644;4.734;2023-04-29T09:06:31;12.80;;;8.13;;
17488;SDS011;8861;52.644;4.734;2023-04-29T09:08:58;14.73;;;8.50;;
17488;SDS011;8861;52.644;4.734;2023-04-29T09:11:26;13.70;;;7.73;;
17488;SDS011;8861;52.644;4.734;2023-04-29T09:13:57;10.03;;;6.37;;
17488;SDS011;8861;52.644;4.734;2023-04-29T09:16:24;10.67;;;6.73;;
17488;SDS011;8861;52.644;4.734;2023-04-29T09:18:51;15.93;;;9.87;;
17488;SDS011;8861;52.644;4.734;2023-04-29T09:21:19;15.57;;;9.73;;
17488;SDS011;8861;52.644;4.734;2023-04-29T09:23:49;12.33;;;8.63;;
17488;SDS011;8861;52.644;4.734;2023-04-29T09:26:17;12.63;;;7.60;;
17488;SDS011;8861;52.644;4.734;2023-04-29T09:28:45;10.77;;;7.00;;
17488;SDS011;8861;52.644;4.734;2023-04-29T09:31:13;10.73;;;7.30;;
17488;SDS011;8861;52.644;4.734;2023-04-29T09:33:50;16.40;;;8.33;;
17488;SDS011;8861;52.644;4.734;2023-04-29T09:36:37;17.43;;;8.77;;
17488;SDS011;8861;52.644;4.734;2023-04-29T09:39:07;14.13;;;7.87;;
17488;SDS011;8861;52.644;4.734;2023-04-29T09:41:38;12.23;;;7.73;;
17488;SDS011;8861;52.644;4.734;2023-04-29T09:44:06;13.63;;;8.00;;
17488;SDS011;8861;52.644;4.734;2023-04-29T09:46:35;11.97;;;7.47;;
17488;SDS011;8861;52.644;4.734;2023-04-29T09:49:02;14.90;;;9.00;;
17488;SDS011;8861;52.644;4.734;2023-04-29T09:51:50;15.73;;;9.20;;
17488;SDS011;8861;52.644;4.734;2023-04-29T09:54:20;16.27;;;9.07;;
17488;SDS011;8861;52.644;4.734;2023-04-29T09:56:48;13.20;;;7.27;;
17488;SDS011;8861;52.644;4.734;2023-04-29T09:59:16;13.10;;;7.03;;
17488;SDS011;8861;52.644;4.734;2023-04-29T10:01:43;13.73;;;7.37;;
17488;SDS011;8861;52.644;4.734;2023-04-29T10:04:13;12.90;;;8.60;;
17488;SDS011;8861;52.644;4.734;2023-04-29T10:06:41;15.10;;;7.70;;
17488;SDS011;8861;52.644;4.734;2023-04-29T10:09:10;14.13;;;8.63;;
17488;SDS011;8861;52.644;4.734;2023-04-29T10:11:42;13.47;;;8.63;;
17488;SDS011;8861;52.644;4.734;2023-04-29T10:14:11;16.50;;;9.23;;
17488;SDS011;8861;52.644;4.734;2023-04-29T10:16:44;12.73;;;8.07;;
17488;SDS011;8861;52.644;4.734;2023-04-29T10:19:14;13.17;;;8.50;;
17488;SDS011;8861;52.644;4.734;2023-04-29T10:21:44;14.83;;;8.23;;
17488;SDS011;8861;52.644;4.734;2023-04-29T10:24:14;11.50;;;8.00;;
17488;SDS011;8861;52.644;4.734;2023-04-29T10:26:45;14.13;;;8.97;;
17488;SDS011;8861;52.644;4.734;2023-04-29T10:29:13;16.33;;;8.67;;
17488;SDS011;8861;52.644;4.734;2023-04-29T10:31:42;9.63;;;7.07;;
17488;SDS011;8861;52.644;4.734;2023-04-29T10:34:10;10.47;;;7.30;;
17488;SDS011;8861;52.644;4.734;2023-04-29T10:36:38;10.00;;;7.40;;
17488;SDS011;8861;52.644;4.734;2023-04-29T10:39:07;12.23;;;8.00;;
17488;SDS011;8861;52.644;4.734;2023-04-29T10:41:41;9.50;;;6.83;;
17488;SDS011;8861;52.644;4.734;2023-04-29T10:44:12;9.97;;;6.30;;
17488;SDS011;8861;52.644;4.734;2023-04-29T10:46:39;8.70;;;5.93;;
17488;SDS011;8861;52.644;4.734;2023-04-29T10:49:06;8.77;;;6.30;;
17488;SDS011;8861;52.644;4.734;2023-04-29T10:51:38;7.77;;;5.33;;
17488;SDS011;8861;52.644;4.734;2023-04-29T10:54:07;9.30;;;6.27;;
17488;SDS011;8861;52.644;4.734;2023-04-29T10:56:38;7.87;;;5.70;;
17488;SDS011;8861;52.644;4.734;2023-04-29T10:59:15;10.87;;;6.07;;
17488;SDS011;8861;52.644;4.734;2023-04-29T11:01:46;10.30;;;5.93;;
17488;SDS011;8861;52.644;4.734;2023-04-29T11:04:15;8.90;;;5.80;;
17488;SDS011;8861;52.644;4.734;2023-04-29T11:06:44;9.13;;;5.17;;
17488;SDS011;8861;52.644;4.734;2023-04-29T11:09:14;8.50;;;5.13;;
17488;SDS011;8861;52.644;4.734;2023-04-29T11:11:46;7.97;;;4.80;;
17488;SDS011;8861;52.644;4.734;2023-04-29T11:14:26;9.40;;;4.90;;
17488;SDS011;8861;52.644;4.734;2023-04-29T11:16:55;6.93;;;5.00;;
17488;SDS011;8861;52.644;4.734;2023-04-29T11:19:24;9.80;;;5.33;;
17488;SDS011;8861;52.644;4.734;2023-04-29T11:22:11;9.77;;;5.03;;
17488;SDS011;8861;52.644;4.734;2023-04-29T11:24:49;10.70;;;5.67;;
17488;SDS011;8861;52.644;4.734;2023-04-29T11:27:18;11.23;;;5.50;;
17488;SDS011;8861;52.644;4.734;2023-04-29T11:29:48;8.43;;;5.33;;
17488;SDS011;8861;52.644;4.734;2023-04-29T11:32:18;9.67;;;5.90;;
17488;SDS011;8861;52.644;4.734;2023-04-29T11:34:46;9.40;;;5.23;;
17488;SDS011;8861;52.644;4.734;2023-04-29T11:37:18;9.73;;;5.63;;
17488;SDS011;8861;52.644;4.734;2023-04-29T11:39:46;11.33;;;6.57;;
17488;SDS011;8861;52.644;4.734;2023-04-29T11:42:18;12.87;;;6.17;;
17488;SDS011;8861;52.644;4.734;2023-04-29T11:44:45;11.43;;;6.10;;
17488;SDS011;8861;52.644;4.734;2023-04-29T11:47:16;10.73;;;6.00;;
17488;SDS011;8861;52.644;4.734;2023-04-29T11:49:43;9.33;;;5.37;;
17488;SDS011;8861;52.644;4.734;2023-04-29T11:52:10;10.00;;;6.30;;
17488;SDS011;8861;52.644;4.734;2023-04-29T11:54:39;9.07;;;5.70;;
17488;SDS011;8861;52.644;4.734;2023-04-29T11:57:09;12.33;;;6.03;;
17488;SDS011;8861;52.644;4.734;2023-04-29T11:59:36;10.63;;;5.60;;
17488;SDS011;8861;52.644;4.734;2023-04-29T12:02:05;9.23;;;5.00;;
17488;SDS011;8861;52.644;4.734;2023-04-29T12:04:32;8.30;;;4.80;;
17488;SDS011;8861;52.644;4.734;2023-04-29T12:07:01;8.70;;;4.23;;
17488;SDS011;8861;52.644;4.734;2023-04-29T12:09:28;7.27;;;3.80;;
17488;SDS011;8861;52.644;4.734;2023-04-29T12:12:07;6.50;;;3.40;;
17488;SDS011;8861;52.644;4.734;2023-04-29T12:14:34;7.40;;;3.73;;
17488;SDS011;8861;52.644;4.734;2023-04-29T12:17:02;7.17;;;3.50;;
17488;SDS011;8861;52.644;4.734;2023-04-29T12:19:30;5.13;;;2.73;;
17488;SDS011;8861;52.644;4.734;2023-04-29T12:21:57;7.07;;;3.17;;
17488;SDS011;8861;52.644;4.734;2023-04-29T12:24:28;5.43;;;3.23;;
17488;SDS011;8861;52.644;4.734;2023-04-29T12:26:59;5.47;;;3.50;;
17488;SDS011;8861;52.644;4.734;2023-04-29T12:29:25;7.60;;;4.30;;
17488;SDS011;8861;52.644;4.734;2023-04-29T12:31:52;5.33;;;4.03;;
17488;SDS011;8861;52.644;4.734;2023-04-29T12:34:23;6.03;;;3.93;;
17488;SDS011;8861;52.644;4.734;2023-04-29T12:36:53;5.67;;;3.43;;
17488;SDS011;8861;52.644;4.734;2023-04-29T12:39:21;5.40;;;3.37;;
17488;SDS011;8861;52.644;4.734;2023-04-29T12:41:48;4.27;;;3.17;;
17488;SDS011;8861;52.644;4.734;2023-04-29T12:44:19;5.07;;;3.37;;
17488;SDS011;8861;52.644;4.734;2023-04-29T12:46:47;4.77;;;3.27;;
17488;SDS011;8861;52.644;4.734;2023-04-29T12:49:13;6.53;;;3.87;;
17488;SDS011;8861;52.644;4.734;2023-04-29T12:51:43;6.60;;;4.20;;
17488;SDS011;8861;52.644;4.734;2023-04-29T12:54:11;5.87;;;4.20;;
17488;SDS011;8861;52.644;4.734;2023-04-29T12:56:38;5.77;;;3.70;;
17488;SDS011;8861;52.644;4.734;2023-04-29T12:59:05;6.03;;;3.77;;
17488;SDS011;8861;52.644;4.734;2023-04-29T13:01:33;5.27;;;3.93;;
17488;SDS011;8861;52.644;4.734;2023-04-29T13:04:00;9.33;;;4.60;;
17488;SDS011;8861;52.644;4.734;2023-04-29T13:06:29;8.57;;;4.60;;
17488;SDS011;8861;52.644;4.734;2023-04-29T13:08:56;7.33;;;4.33;;
17488;SDS011;8861;52.644;4.734;2023-04-29T13:11:25;8.57;;;4.70;;
17488;SDS011;8861;52.644;4.734;2023-04-29T13:13:52;9.17;;;5.30;;
17488;SDS011;8861;52.644;4.734;2023-04-29T13:16:18;8.93;;;4.10;;
17488;SDS011;8861;52.644;4.734;2023-04-29T13:18:46;7.97;;;4.77;;
17488;SDS011;8861;52.644;4.734;2023-04-29T13:21:13;6.27;;;4.73;;
17488;SDS011;8861;52.644;4.734;2023-04-29T13:23:40;7.03;;;4.30;;
17488;SDS011;8861;52.644;4.734;2023-04-29T13:26:07;5.67;;;4.13;;
17488;SDS011;8861;52.644;4.734;2023-04-29T13:28:35;6.87;;;4.37;;
17488;SDS011;8861;52.644;4.734;2023-04-29T13:31:02;8.07;;;4.77;;
17488;SDS011;8861;52.644;4.734;2023-04-29T13:33:29;6.97;;;4.13;;
17488;SDS011;8861;52.644;4.734;2023-04-29T13:35:56;7.33;;;4.77;;
17488;SDS011;8861;52.644;4.734;2023-04-29T13:38:23;8.63;;;4.83;;
17488;SDS011;8861;52.644;4.734;2023-04-29T13:40:50;7.27;;;4.50;;
17488;SDS011;8861;52.644;4.734;2023-04-29T13:43:17;6.77;;;4.73;;
17488;SDS011;8861;52.644;4.734;2023-04-29T13:45:45;9.80;;;4.70;;
17488;SDS011;8861;52.644;4.734;2023-04-29T13:48:13;5.33;;;3.40;;
17488;SDS011;8861;52.644;4.734;2023-04-29T13:50:39;6.57;;;3.60;;
17488;SDS011;8861;52.644;4.734;2023-04-29T13:53:06;7.43;;;3.63;;
17488;SDS011;8861;52.644;4.734;2023-04-29T13:55:33;6.07;;;3.10;;
17488;SDS011;8861;52.644;4.734;2023-04-29T13:58:00;4.17;;;2.77;;
17488;SDS011;8861;52.644;4.734;2023-04-29T14:00:27;4.90;;;2.87;;
17488;SDS011;8861;52.644;4.734;2023-04-29T14:02:56;2.60;;;2.40;;
17488;SDS011;8861;52.644;4.734;2023-04-29T14:05:22;6.53;;;3.40;;
17488;SDS011;8861;52.644;4.734;2023-04-29T14:07:49;7.73;;;3.20;;
17488;SDS011;8861;52.644;4.734;2023-04-29T14:10:16;4.73;;;2.20;;
17488;SDS011;8861;52.644;4.734;2023-04-29T14:12:43;6.03;;;2.40;;
17488;SDS011;8861;52.644;4.734;2023-04-29T14:15:11;5.30;;;2.07;;
17488;SDS011;8861;52.644;4.734;2023-04-29T14:17:38;4.57;;;1.77;;
17488;SDS011;8861;52.644;4.734;2023-04-29T14:20:07;2.10;;;1.50;;
17488;SDS011;8861;52.644;4.734;2023-04-29T14:22:34;2.47;;;1.63;;
17488;SDS011;8861;52.644;4.734;2023-04-29T14:25:01;3.97;;;1.70;;
17488;SDS011;8861;52.644;4.734;2023-04-29T14:27:28;3.27;;;1.93;;
17488;SDS011;8861;52.644;4.734;2023-04-29T14:29:55;1.93;;;1.50;;
17488;SDS011;8861;52.644;4.734;2023-04-29T14:32:22;3.00;;;1.70;;
17488;SDS011;8861;52.644;4.734;2023-04-29T14:34:49;4.90;;;1.70;;
17488;SDS011;8861;52.644;4.734;2023-04-29T14:37:17;4.37;;;2.00;;
17488;SDS011;8861;52.644;4.734;2023-04-29T14:39:44;2.63;;;1.93;;
17488;SDS011;8861;52.644;4.734;2023-04-29T14:42:11;4.90;;;1.80;;
17488;SDS011;8861;52.644;4.734;2023-04-29T14:44:39;3.07;;;1.77;;
17488;SDS011;8861;52.644;4.734;2023-04-29T14:47:06;3.80;;;1.87;;
17488;SDS011;8861;52.644;4.734;2023-04-29T14:49:33;3.60;;;1.90;;
17488;SDS011;8861;52.644;4.734;2023-04-29T14:52:00;4.10;;;1.80;;